Time;durP1;ratioP1;P1;durP2;ratioP2;P2;SDS_P1;SDS_P2;PMS_P1;PMS_P2;Temp;Humidity;BMP_temperature;BMP_pressure;BME280_temperature;BME280_humidity;BME280_pressure;Samples;Min_cycle;Max_cycle;Signal;HPM_P1;HPM_P2
2022/08/21 04:01:06;;;;;;;0.20;0.20;;;13.70;99.90;;;;;;5568101;23;20284;-71
2022/08/21 04:03:35;;;;;;;0.10;0.10;;;13.80;99.90;;;;;;4894119;29;20525;-72
2022/08/21 04:06:02;;;;;;;0.20;0.20;;;13.70;99.90;;;;;;4893382;29;20469;-72
2022/08/21 04:08:29;;;;;;;0.30;0.30;;;13.70;99.90;;;;;;4894793;29;20559;-70
2022/08/21 04:10:58;;;;;;;0.10;0.10;;;13.70;99.90;;;;;;4893558;29;20554;-70
2022/08/21 04:13:27;;;;;;;0.47;0.47;;;13.70;99.90;;;;;;4894842;29;20505;-70
2022/08/21 04:15:55;;;;;;;0.30;0.30;;;13.70;99.90;;;;;;4886934;29;20555;-71
2022/08/21 04:18:23;;;;;;;0.10;0.10;;;13.70;99.90;;;;;;4895265;29;20465;-71
2022/08/21 04:20:52;;;;;;;0.10;0.10;;;13.70;99.90;;;;;;4891363;29;20501;-70
2022/08/21 04:23:19;;;;;;;0.10;0.10;;;13.70;99.90;;;;;;4895864;29;20260;-71
2022/08/21 04:25:46;;;;;;;0.20;0.20;;;13.70;99.90;;;;;;4892567;29;20216;-71
2022/08/21 04:28:13;;;;;;;0.60;0.60;;;13.70;99.90;;;;;;4895908;29;20691;-70
2022/08/21 04:30:39;;;;;;;0.10;0.10;;;13.80;99.90;;;;;;4892217;29;20501;-71
2022/08/21 04:33:06;;;;;;;0.10;0.10;;;13.80;99.90;;;;;;4891616;29;20486;-71
2022/08/21 04:35:34;;;;;;;0.20;0.20;;;13.80;99.90;;;;;;4890941;29;20481;-71
2022/08/21 04:38:01;;;;;;;0.20;0.20;;;13.80;99.90;;;;;;4894647;29;20561;-70
2022/08/21 04:40:29;;;;;;;0.20;0.20;;;13.80;99.90;;;;;;4892900;29;20217;-71
2022/08/21 04:42:59;;;;;;;0.10;0.10;;;13.80;99.90;;;;;;4894075;29;20234;-71
2022/08/21 04:45:28;;;;;;;0.20;0.20;;;13.80;99.90;;;;;;4891168;29;20555;-71
2022/08/21 04:47:57;;;;;;;0.20;0.20;;;13.80;99.90;;;;;;4890956;29;20481;-71
2022/08/21 04:50:28;;;;;;;0.17;0.17;;;13.80;99.90;;;;;;4893461;29;20472;-71
2022/08/21 04:52:56;;;;;;;0.30;0.30;;;13.90;99.90;;;;;;4899393;29;20478;-71
2022/08/21 04:55:27;;;;;;;0.10;0.10;;;13.90;99.90;;;;;;4908601;29;20492;-71
2022/08/21 04:57:54;;;;;;;0.20;0.20;;;14.00;99.90;;;;;;4910552;29;20498;-71
2022/08/21 05:00:24;;;;;;;0.20;0.20;;;14.10;99.90;;;;;;4910730;29;20483;-71
2022/08/21 05:02:56;;;;;;;0.10;0.10;;;14.10;99.90;;;;;;4910999;29;20534;-71
2022/08/21 05:05:22;;;;;;;0.20;0.20;;;14.10;99.90;;;;;;4907365;29;20545;-71
2022/08/21 05:07:49;;;;;;;0.50;0.30;;;14.10;99.90;;;;;;4905938;29;20470;-71
2022/08/21 05:10:18;;;;;;;0.20;0.20;;;14.00;99.90;;;;;;4892460;29;20561;-70
2022/08/21 05:12:45;;;;;;;0.20;0.20;;;14.00;99.90;;;;;;4893314;29;20485;-70
2022/08/21 05:15:13;;;;;;;0.10;0.10;;;14.00;99.90;;;;;;4891469;29;20963;-70
2022/08/21 05:17:40;;;;;;;0.10;0.10;;;14.00;99.90;;;;;;4893579;29;20850;-71
2022/08/21 05:20:07;;;;;;;0.20;0.20;;;14.00;99.90;;;;;;4895156;29;20490;-70
2022/08/21 05:22:34;;;;;;;0.10;0.10;;;14.00;99.90;;;;;;4896864;29;20502;-70
2022/08/21 05:25:01;;;;;;;0.20;0.20;;;14.10;99.90;;;;;;4895909;29;20829;-71
2022/08/21 05:27:30;;;;;;;0.30;0.30;;;14.10;99.90;;;;;;4895322;29;20801;-72
2022/08/21 05:29:56;;;;;;;0.20;0.20;;;14.10;99.90;;;;;;4896224;29;20793;-71
2022/08/21 05:32:23;;;;;;;0.30;0.30;;;14.20;99.90;;;;;;4896474;29;20524;-71
2022/08/21 05:34:50;;;;;;;0.10;0.10;;;14.20;99.90;;;;;;4894680;29;20485;-70
2022/08/21 05:37:17;;;;;;;0.10;0.10;;;14.30;99.90;;;;;;4887280;29;20472;-69
2022/08/21 05:39:44;;;;;;;1.53;0.37;;;14.40;99.90;;;;;;4895365;29;20478;-69
2022/08/21 05:42:11;;;;;;;0.10;0.10;;;14.40;99.90;;;;;;4895496;29;20494;-70
2022/08/21 05:44:39;;;;;;;0.10;0.10;;;14.50;99.90;;;;;;4892682;29;20846;-70
2022/08/21 05:47:08;;;;;;;0.20;0.20;;;14.60;99.90;;;;;;4893525;29;20551;-71
2022/08/21 05:49:35;;;;;;;0.10;0.10;;;14.70;99.90;;;;;;4896775;29;20984;-72
2022/08/21 05:52:03;;;;;;;0.20;0.20;;;14.80;99.90;;;;;;4895537;29;20503;-71
2022/08/21 05:54:31;;;;;;;0.40;0.40;;;14.90;99.90;;;;;;4890911;29;20484;-72
2022/08/21 05:56:58;;;;;;;0.30;0.30;;;15.10;99.90;;;;;;4895739;29;20475;-72
2022/08/21 05:59:24;;;;;;;0.30;0.30;;;15.20;99.90;;;;;;4897943;29;20484;-72
2022/08/21 06:01:53;;;;;;;0.30;0.23;;;15.10;99.90;;;;;;4894658;29;20545;-72
2022/08/21 06:04:20;;;;;;;0.20;0.20;;;15.10;99.90;;;;;;4898972;29;20495;-72
2022/08/21 06:06:47;;;;;;;0.10;0.10;;;15.00;99.90;;;;;;4894524;29;20485;-73
2022/08/21 06:09:14;;;;;;;0.20;0.20;;;15.00;99.90;;;;;;4898435;29;20477;-73
2022/08/21 06:11:41;;;;;;;0.40;0.40;;;15.00;99.90;;;;;;4893287;29;20623;-71
2022/08/21 06:14:08;;;;;;;0.43;0.43;;;15.20;99.90;;;;;;4897912;29;20996;-72
2022/08/21 06:16:34;;;;;;;0.10;0.10;;;15.20;99.90;;;;;;4892096;29;20857;-73
2022/08/21 06:19:03;;;;;;;0.20;0.20;;;15.30;99.90;;;;;;4893219;29;20516;-72
2022/08/21 06:21:29;;;;;;;0.30;0.30;;;15.90;99.90;;;;;;4894403;29;20498;-72
2022/08/21 06:23:56;;;;;;;0.40;0.40;;;16.40;99.90;;;;;;4896516;29;20499;-72
2022/08/21 06:29:45;;;;;;;0.20;0.20;;;16.50;99.90;;;;;;4895360;29;20934;-72
2022/08/21 06:32:12;;;;;;;0.20;0.20;;;16.50;99.90;;;;;;4887818;29;20613;-68
2022/08/21 06:34:41;;;;;;;0.10;0.10;;;16.50;99.90;;;;;;4895695;29;20463;-70
2022/08/21 06:37:09;;;;;;;0.10;0.10;;;16.50;99.90;;;;;;4891550;29;20975;-70
2022/08/21 06:39:35;;;;;;;0.30;0.20;;;16.60;99.90;;;;;;4894530;29;20480;-70
2022/08/21 06:42:02;;;;;;;0.20;0.20;;;16.70;99.90;;;;;;4891042;29;20516;-69
2022/08/21 06:44:30;;;;;;;0.10;0.10;;;16.80;99.90;;;;;;4892732;29;20497;-71
2022/08/21 06:46:57;;;;;;;0.10;0.10;;;16.80;99.90;;;;;;4892434;29;20943;-69
2022/08/21 06:49:24;;;;;;;0.20;0.20;;;16.80;99.90;;;;;;4893804;29;20482;-70
2022/08/21 06:51:52;;;;;;;0.70;0.70;;;16.90;99.90;;;;;;4894879;29;20970;-70
2022/08/21 06:54:18;;;;;;;0.20;0.20;;;16.90;99.90;;;;;;4894671;29;20492;-70
2022/08/21 06:56:46;;;;;;;0.10;0.10;;;17.00;99.90;;;;;;4892006;29;20857;-71
2022/08/21 06:59:12;;;;;;;0.17;0.17;;;17.10;99.90;;;;;;4895040;29;20466;-70
2022/08/21 07:01:40;;;;;;;0.73;0.60;;;17.20;99.90;;;;;;4895618;29;20510;-71
2022/08/21 07:04:07;;;;;;;0.30;0.30;;;17.40;99.90;;;;;;4893901;29;20493;-71
2022/08/21 07:06:33;;;;;;;0.30;0.30;;;18.00;99.90;;;;;;4894281;29;21038;-72
2022/08/21 07:09:02;;;;;;;0.20;0.20;;;18.80;99.90;;;;;;4893407;29;20473;-72
2022/08/21 07:11:29;;;;;;;0.30;0.30;;;19.30;99.90;;;;;;4892371;29;20499;-71
2022/08/21 07:13:56;;;;;;;0.20;0.20;;;19.50;99.90;;;;;;4888646;29;20469;-72
2022/08/21 07:16:24;;;;;;;0.23;0.20;;;19.60;99.90;;;;;;4895292;29;20484;-72
2022/08/21 07:18:50;;;;;;;0.30;0.30;;;19.60;99.90;;;;;;4893650;29;20468;-70
2022/08/21 07:21:18;;;;;;;0.20;0.20;;;19.60;99.90;;;;;;4894687;29;20233;-71
2022/08/21 07:23:47;;;;;;;0.40;0.40;;;20.00;99.90;;;;;;4887749;29;20839;-71
2022/08/21 07:26:18;;;;;;;0.30;0.30;;;20.60;99.90;;;;;;4892360;29;20560;-71
2022/08/21 07:28:44;;;;;;;0.30;0.30;;;21.00;99.90;;;;;;4890638;29;20984;-70
2022/08/21 07:31:14;;;;;;;0.33;0.33;;;21.30;99.90;;;;;;4893643;29;20496;-70
2022/08/21 07:33:42;;;;;;;0.20;0.20;;;21.50;99.90;;;;;;4893139;29;20941;-70
2022/08/21 07:36:09;;;;;;;0.30;0.30;;;21.40;99.90;;;;;;4895750;29;20459;-71
2022/08/21 07:38:36;;;;;;;0.20;0.20;;;21.40;99.90;;;;;;4893453;29;20832;-70
2022/08/21 07:41:07;;;;;;;0.90;0.20;;;21.60;99.90;;;;;;4893960;29;20496;-71
2022/08/21 07:43:37;;;;;;;0.27;0.27;;;21.80;99.90;;;;;;4890387;29;20844;-70
2022/08/21 07:46:04;;;;;;;0.40;0.40;;;22.00;99.90;;;;;;4893054;29;20483;-70
2022/08/21 07:48:31;;;;;;;0.30;0.30;;;22.10;99.90;;;;;;4894109;29;20475;-71
2022/08/21 07:50:58;;;;;;;0.30;0.30;;;21.90;99.90;;;;;;4894495;29;20867;-70
2022/08/21 07:53:25;;;;;;;0.27;0.27;;;21.80;99.90;;;;;;4890749;29;20483;-70
2022/08/21 07:55:52;;;;;;;0.30;0.30;;;21.70;99.90;;;;;;4887655;29;20480;-69
2022/08/21 07:58:18;;;;;;;0.23;0.23;;;21.60;99.90;;;;;;4893286;29;20483;-70
2022/08/21 08:00:46;;;;;;;0.60;0.20;;;21.40;99.90;;;;;;4893281;29;20510;-71
2022/08/21 08:03:13;;;;;;;0.20;0.20;;;21.30;99.90;;;;;;4888565;29;20474;-71
2022/08/21 08:05:40;;;;;;;0.50;0.50;;;21.10;99.90;;;;;;4884924;29;20501;-70
2022/08/21 08:08:07;;;;;;;0.20;0.20;;;21.00;99.90;;;;;;4883266;29;20478;-69
2022/08/21 08:10:33;;;;;;;0.20;0.20;;;21.00;99.90;;;;;;4884116;29;20493;-70
2022/08/21 08:13:00;;;;;;;0.20;0.20;;;21.00;99.90;;;;;;4887557;29;20477;-69
2022/08/21 08:15:28;;;;;;;0.30;0.20;;;21.10;99.90;;;;;;4891430;29;20469;-70
2022/08/21 08:17:57;;;;;;;0.23;0.23;;;21.30;99.90;;;;;;4889693;29;20477;-69
2022/08/21 08:20:26;;;;;;;0.40;0.30;;;21.30;99.90;;;;;;4891425;29;20465;-71
2022/08/21 08:22:53;;;;;;;0.60;0.60;;;21.40;99.90;;;;;;4889403;29;20479;-71
2022/08/21 08:25:22;;;;;;;0.20;0.20;;;21.40;99.90;;;;;;4891691;29;20497;-73
2022/08/21 08:27:48;;;;;;;0.20;0.20;;;21.40;99.90;;;;;;4890960;29;20557;-72
2022/08/21 08:30:17;;;;;;;0.20;0.20;;;21.40;99.90;;;;;;4891098;29;20473;-73
2022/08/21 08:32:45;;;;;;;0.20;0.20;;;21.50;99.90;;;;;;4889680;29;20473;-73
2022/08/21 08:35:14;;;;;;;0.40;0.40;;;21.60;99.90;;;;;;4893935;29;20523;-75
2022/08/21 08:37:42;;;;;;;0.50;0.50;;;21.60;99.90;;;;;;4894174;29;20517;-73
2022/08/21 08:40:13;;;;;;;0.27;0.27;;;21.60;99.90;;;;;;4891543;29;20870;-72
2022/08/21 08:42:40;;;;;;;0.67;0.67;;;21.80;99.90;;;;;;4892773;29;20473;-72
2022/08/21 08:45:10;;;;;;;0.10;0.10;;;21.80;99.90;;;;;;4892486;29;20503;-72
2022/08/21 08:47:45;;;;;;;0.20;0.20;;;21.90;99.90;;;;;;4891865;29;20546;-73
2022/08/21 08:50:21;;;;;;;0.20;0.20;;;22.00;99.90;;;;;;4888645;29;20845;-73
2022/08/21 08:52:58;;;;;;;0.20;0.20;;;22.20;99.90;;;;;;4886327;29;20468;-73
2022/08/21 08:55:33;;;;;;;0.10;0.10;;;22.20;99.90;;;;;;4896665;29;20465;-73
2022/08/21 08:58:02;;;;;;;0.30;0.30;;;22.30;99.90;;;;;;4894149;29;20923;-73
2022/08/21 09:00:30;;;;;;;0.20;0.20;;;22.30;99.90;;;;;;4891743;29;20469;-73
2022/08/21 09:02:59;;;;;;;0.20;0.20;;;22.20;99.90;;;;;;4890213;29;20809;-73
2022/08/21 09:05:37;;;;;;;0.20;0.20;;;22.30;99.90;;;;;;4887113;29;20497;-73
2022/08/21 09:08:22;;;;;;;1.03;0.30;;;22.50;99.90;;;;;;4887154;29;20478;-72
2022/08/21 09:10:59;;;;;;;0.73;0.40;;;22.50;99.90;;;;;;4892682;29;20901;-71
2022/08/21 09:13:41;;;;;;;0.20;0.20;;;22.70;99.90;;;;;;4892959;29;20486;-72
2022/08/21 09:16:15;;;;;;;0.20;0.20;;;22.80;99.90;;;;;;4890094;29;20472;-72
2022/08/21 09:18:53;;;;;;;0.37;0.30;;;22.90;99.90;;;;;;4896474;29;20959;-72
2022/08/21 09:21:31;;;;;;;0.30;0.30;;;23.10;99.90;;;;;;4893699;29;20501;-72
2022/08/21 09:24:01;;;;;;;0.20;0.20;;;23.30;99.90;;;;;;4890840;29;20482;-72
2022/08/21 09:26:32;;;;;;;0.20;0.20;;;23.40;99.90;;;;;;4891741;29;20474;-72
2022/08/21 09:29:01;;;;;;;0.50;0.50;;;23.40;99.90;;;;;;4898123;29;20801;-72
2022/08/21 09:31:30;;;;;;;0.20;0.20;;;23.50;99.90;;;;;;4892808;29;20539;-73
2022/08/21 09:34:01;;;;;;;0.40;0.20;;;23.40;99.90;;;;;;4896292;29;20584;-72
2022/08/21 09:36:37;;;;;;;0.30;0.30;;;23.40;99.90;;;;;;4894320;29;20483;-73
2022/08/21 09:39:05;;;;;;;0.20;0.20;;;23.40;99.90;;;;;;4891621;29;20475;-72
2022/08/21 09:41:34;;;;;;;0.23;0.23;;;23.40;99.90;;;;;;4890086;29;20583;-73
2022/08/21 09:44:01;;;;;;;0.40;0.40;;;23.50;99.90;;;;;;4895505;29;20570;-73
2022/08/21 09:46:29;;;;;;;0.20;0.20;;;23.70;99.90;;;;;;4893734;29;20483;-72
2022/08/21 09:48:58;;;;;;;0.30;0.23;;;23.80;99.90;;;;;;4895316;29;20912;-72
2022/08/21 09:51:27;;;;;;;0.33;0.33;;;23.90;99.90;;;;;;4890511;29;20530;-72
2022/08/21 09:54:15;;;;;;;0.30;0.30;;;24.00;99.90;;;;;;4890598;29;20473;-72
2022/08/21 09:59:40;;;;;;;0.20;0.20;;;24.10;99.90;;;;;;4895124;29;20640;-72
2022/08/21 10:02:25;;;;;;;0.20;0.20;;;24.10;99.90;;;;;;4892466;29;20603;-72
2022/08/21 10:04:54;;;;;;;0.23;0.23;;;24.10;99.90;;;;;;4891724;29;20590;-73
2022/08/21 10:07:23;;;;;;;0.20;0.20;;;24.10;99.90;;;;;;4894015;29;20472;-72
2022/08/21 10:10:02;;;;;;;0.20;0.20;;;24.10;99.90;;;;;;4895964;29;20478;-72
2022/08/21 10:12:38;;;;;;;0.50;0.30;;;24.10;99.90;;;;;;4894526;29;20495;-72
2022/08/21 10:15:13;;;;;;;0.43;0.43;;;24.20;99.90;;;;;;4893752;29;20475;-72
2022/08/21 10:17:50;;;;;;;0.33;0.33;;;24.40;99.90;;;;;;4894361;29;20538;-72
2022/08/21 10:20:23;;;;;;;0.23;0.23;;;24.40;99.90;;;;;;4895277;29;20479;-73
2022/08/21 10:22:58;;;;;;;0.20;0.20;;;24.40;99.90;;;;;;4892291;29;20803;-73
2022/08/21 10:25:32;;;;;;;0.30;0.30;;;24.50;99.90;;;;;;4894540;29;20490;-73
2022/08/21 10:28:05;;;;;;;0.30;0.30;;;24.40;99.90;;;;;;4886582;29;20486;-74
2022/08/21 10:30:38;;;;;;;0.20;0.20;;;24.30;99.90;;;;;;4886063;29;20482;-73
2022/08/21 10:33:20;;;;;;;0.27;0.27;;;24.00;99.90;;;;;;4885027;29;20493;-74
2022/08/21 10:35:57;;;;;;;0.30;0.30;;;23.80;99.90;;;;;;4892044;29;20472;-74
2022/08/21 10:38:50;;;;;;;0.30;0.30;;;23.70;99.90;;;;;;4884207;29;20486;-72
2022/08/21 10:41:28;;;;;;;0.50;0.50;;;23.60;99.90;;;;;;4885972;29;20506;-73
2022/08/21 10:44:05;;;;;;;0.20;0.20;;;23.60;99.90;;;;;;4884840;29;20478;-72
2022/08/21 10:46:40;;;;;;;0.20;0.20;;;23.80;99.90;;;;;;4891427;29;20501;-72
2022/08/21 10:49:16;;;;;;;0.33;0.33;;;23.90;99.90;;;;;;4892534;29;20478;-72
2022/08/21 10:51:54;;;;;;;0.20;0.20;;;23.90;99.90;;;;;;4888713;29;20691;-72
2022/08/21 10:54:30;;;;;;;0.53;0.30;;;23.90;99.90;;;;;;4894282;29;20477;-70
2022/08/21 10:57:04;;;;;;;1.97;0.60;;;24.00;99.90;;;;;;4893625;29;20478;-71
2022/08/21 10:59:39;;;;;;;0.40;0.40;;;23.90;99.90;;;;;;4895077;29;20479;-70
2022/08/21 11:02:15;;;;;;;0.20;0.20;;;23.90;99.90;;;;;;4893665;29;20501;-71
2022/08/21 11:04:50;;;;;;;0.40;0.40;;;23.80;99.90;;;;;;4888469;29;20497;-71
2022/08/21 11:07:21;;;;;;;0.30;0.30;;;23.70;99.90;;;;;;4895689;29;20480;-71
2022/08/21 11:09:50;;;;;;;0.30;0.30;;;23.70;99.90;;;;;;4895218;29;20555;-70
2022/08/21 11:12:25;;;;;;;0.23;0.23;;;23.60;99.90;;;;;;4893314;29;20502;-70
2022/08/21 11:14:57;;;;;;;0.40;0.40;;;23.50;99.90;;;;;;4895325;29;20473;-71
2022/08/21 11:17:31;;;;;;;0.40;0.40;;;23.50;99.90;;;;;;4894429;29;20537;-71
2022/08/21 11:20:08;;;;;;;0.37;0.37;;;23.50;99.90;;;;;;4895587;29;20482;-70
2022/08/21 11:22:41;;;;;;;0.30;0.30;;;23.70;99.90;;;;;;4891055;29;20502;-68
2022/08/21 11:25:14;;;;;;;0.20;0.20;;;23.80;99.90;;;;;;4895057;29;20491;-71
2022/08/21 11:27:45;;;;;;;0.30;0.30;;;23.90;99.90;;;;;;4887378;29;20478;-70
2022/08/21 11:30:13;;;;;;;0.20;0.20;;;23.90;99.90;;;;;;4893874;29;21011;-69
2022/08/21 11:33:12;;;;;;;0.20;0.20;;;23.90;99.90;;;;;;4889317;29;20475;-71
2022/08/21 11:35:47;;;;;;;0.20;0.20;;;23.90;99.90;;;;;;4888373;29;20467;-71
2022/08/21 11:38:26;;;;;;;0.30;0.30;;;24.10;99.90;;;;;;4895180;29;20473;-72
2022/08/21 11:41:07;;;;;;;0.20;0.20;;;24.10;99.90;;;;;;4887671;29;20491;-71
2022/08/21 11:43:39;;;;;;;0.20;0.20;;;24.10;99.90;;;;;;4894157;29;20479;-73
2022/08/21 11:46:26;;;;;;;0.20;0.20;;;24.20;99.90;;;;;;4893940;29;20491;-71
2022/08/21 11:49:07;;;;;;;0.20;0.20;;;24.30;99.90;;;;;;4895028;29;20479;-71
2022/08/21 11:51:39;;;;;;;0.20;0.20;;;24.40;99.90;;;;;;4894917;29;20885;-73
2022/08/21 11:54:14;;;;;;;0.30;0.30;;;24.50;99.90;;;;;;4901190;29;20482;-71
2022/08/21 11:56:48;;;;;;;0.20;0.20;;;24.50;99.90;;;;;;4906735;29;20474;-70
2022/08/21 11:59:23;;;;;;;0.30;0.30;;;24.40;99.90;;;;;;4905061;29;20587;-67
2022/08/21 12:01:52;;;;;;;0.97;0.27;;;24.50;99.90;;;;;;4904998;29;20506;-70
2022/08/21 12:04:26;;;;;;;0.20;0.20;;;24.40;99.90;;;;;;4904558;29;20761;-71
2022/08/21 12:06:53;;;;;;;0.20;0.20;;;24.20;99.90;;;;;;4894890;29;20516;-71
2022/08/21 12:09:34;;;;;;;0.23;0.23;;;24.20;99.90;;;;;;4894594;29;20532;-71
2022/08/21 12:12:04;;;;;;;0.20;0.20;;;24.30;99.90;;;;;;4891481;29;20844;-71
2022/08/21 12:14:41;;;;;;;0.20;0.20;;;24.30;99.90;;;;;;4893282;29;20485;-71
2022/08/21 12:17:09;;;;;;;0.40;0.27;;;24.30;99.90;;;;;;4890065;29;20466;-71
2022/08/21 12:19:36;;;;;;;0.60;0.47;;;24.30;99.90;;;;;;4893051;29;20469;-71
2022/08/21 12:22:12;;;;;;;0.20;0.20;;;24.40;99.90;;;;;;4894245;29;20503;-71
2022/08/21 12:24:41;;;;;;;0.53;0.30;;;24.40;99.90;;;;;;4894267;29;20485;-72
2022/08/21 12:27:25;;;;;;;0.20;0.20;;;24.50;99.90;;;;;;4895639;29;20495;-71
2022/08/21 12:29:57;;;;;;;0.30;0.20;;;24.50;99.90;;;;;;4905717;29;21058;-72
2022/08/21 12:32:26;;;;;;;0.30;0.30;;;24.50;99.90;;;;;;4908601;29;20524;-71
2022/08/21 12:34:56;;;;;;;0.20;0.20;;;24.60;99.90;;;;;;4912036;29;20499;-72
2022/08/21 12:37:30;;;;;;;0.17;0.17;;;24.70;99.90;;;;;;4899868;29;20486;-73
2022/08/21 12:40:01;;;;;;;0.40;0.23;;;24.90;99.90;;;;;;4899545;29;20473;-71
2022/08/21 12:42:36;;;;;;;0.20;0.20;;;24.90;98.90;;;;;;4895563;29;20503;-71
2022/08/21 12:45:13;;;;;;;0.20;0.20;;;24.90;99.30;;;;;;4896985;29;20494;-70
2022/08/21 12:47:48;;;;;;;0.60;0.60;;;25.00;98.50;;;;;;4897212;29;20559;-71
2022/08/21 12:50:20;;;;;;;0.20;0.20;;;25.10;98.00;;;;;;4897778;29;20471;-68
2022/08/21 12:52:58;;;;;;;0.30;0.30;;;25.10;98.80;;;;;;4895757;29;20467;-71
2022/08/21 12:55:30;;;;;;;0.47;0.20;;;25.20;98.20;;;;;;4897057;29;20471;-70
2022/08/21 12:57:57;;;;;;;0.30;0.30;;;25.30;98.60;;;;;;4892675;29;20475;-72
2022/08/21 13:00:28;;;;;;;0.87;0.30;;;25.30;98.80;;;;;;4897390;29;20467;-72
2022/08/21 13:02:57;;;;;;;0.30;0.30;;;25.40;98.30;;;;;;4898649;29;20578;-71
2022/08/21 13:05:31;;;;;;;0.30;0.30;;;25.40;98.90;;;;;;4896220;29;20495;-72
2022/08/21 13:07:59;;;;;;;0.20;0.20;;;25.30;99.10;;;;;;4896756;29;20467;-72
2022/08/21 13:10:29;;;;;;;0.50;0.50;;;25.20;99.50;;;;;;4898757;29;20543;-71
2022/08/21 13:12:58;;;;;;;0.20;0.20;;;25.20;99.40;;;;;;4896624;29;20474;-69
2022/08/21 13:15:29;;;;;;;0.20;0.20;;;25.20;99.40;;;;;;4894453;29;20475;-69
2022/08/21 13:18:01;;;;;;;0.40;0.40;;;25.10;99.10;;;;;;4896216;29;20973;-71
2022/08/21 13:20:30;;;;;;;0.20;0.20;;;25.20;99.00;;;;;;4896998;29;20480;-70
2022/08/21 13:22:57;;;;;;;0.20;0.20;;;25.20;98.80;;;;;;4895001;29;20503;-71
2022/08/21 13:25:27;;;;;;;0.20;0.20;;;25.20;98.10;;;;;;4895750;29;20503;-70
2022/08/21 13:28:01;;;;;;;0.23;0.23;;;25.20;98.40;;;;;;4895826;29;20464;-71
2022/08/21 13:30:30;;;;;;;0.40;0.40;;;25.10;98.30;;;;;;4895119;29;20482;-71
2022/08/21 13:33:01;;;;;;;0.20;0.20;;;25.20;98.90;;;;;;4896788;29;20992;-71
2022/08/21 13:35:35;;;;;;;0.20;0.20;;;25.20;98.00;;;;;;4895368;29;20470;-70
2022/08/21 13:38:02;;;;;;;0.30;0.30;;;25.20;98.00;;;;;;4895699;29;20475;-70
2022/08/21 13:40:39;;;;;;;0.30;0.30;;;25.20;98.70;;;;;;4893082;29;20472;-70
2022/08/21 13:43:12;;;;;;;0.30;0.30;;;25.20;98.20;;;;;;4892324;29;20482;-70
2022/08/21 13:45:45;;;;;;;0.20;0.20;;;25.10;98.20;;;;;;4895402;29;20528;-70
2022/08/21 13:48:12;;;;;;;0.40;0.40;;;25.00;98.60;;;;;;4891658;29;20471;-70
2022/08/21 13:50:40;;;;;;;0.20;0.20;;;24.80;98.30;;;;;;4896804;29;20494;-71
2022/08/21 13:53:20;;;;;;;0.20;0.20;;;24.80;98.40;;;;;;4893889;29;20486;-70
2022/08/21 13:55:47;;;;;;;0.20;0.20;;;24.80;99.10;;;;;;4892648;29;20874;-72
2022/08/21 13:58:24;;;;;;;0.37;0.37;;;24.90;98.80;;;;;;4895938;29;20816;-71
2022/08/21 14:00:55;;;;;;;0.20;0.20;;;24.90;98.90;;;;;;4887870;29;20883;-70
2022/08/21 14:03:31;;;;;;;0.20;0.20;;;24.90;98.60;;;;;;4893943;29;20511;-71
2022/08/21 14:05:59;;;;;;;0.20;0.20;;;24.80;98.70;;;;;;4895227;29;20490;-71
2022/08/21 14:08:32;;;;;;;0.27;0.27;;;24.90;98.80;;;;;;4896777;29;20475;-72
2022/08/21 14:10:59;;;;;;;0.30;0.30;;;25.00;98.90;;;;;;4893078;29;20989;-71
2022/08/21 14:13:36;;;;;;;0.20;0.20;;;24.80;98.40;;;;;;4895347;29;20474;-72
2022/08/21 14:16:15;;;;;;;0.40;0.40;;;24.80;98.80;;;;;;4891157;29;20499;-71
2022/08/21 14:18:49;;;;;;;0.30;0.30;;;24.60;98.50;;;;;;4894649;29;20467;-72
2022/08/21 14:21:27;;;;;;;0.20;0.20;;;24.60;98.80;;;;;;4890852;29;20499;-71
2022/08/21 14:24:03;;;;;;;0.30;0.30;;;24.60;98.60;;;;;;4889001;29;20470;-72
2022/08/21 14:26:29;;;;;;;0.30;0.30;;;24.70;99.30;;;;;;4895847;29;20805;-71
2022/08/21 14:29:00;;;;;;;0.50;0.50;;;24.70;99.50;;;;;;4897719;29;20497;-71
2022/08/21 14:31:32;;;;;;;0.30;0.30;;;24.70;98.60;;;;;;4890366;29;20491;-71
2022/08/21 14:34:00;;;;;;;0.20;0.20;;;24.60;98.60;;;;;;4895029;29;20475;-71
2022/08/21 14:36:27;;;;;;;0.37;0.37;;;24.70;99.00;;;;;;4892070;29;20472;-72
2022/08/21 14:38:53;;;;;;;0.20;0.20;;;24.80;98.50;;;;;;4895169;29;20479;-70
2022/08/21 14:41:22;;;;;;;0.37;0.37;;;24.90;98.00;;;;;;4890769;29;20490;-72
2022/08/21 14:43:51;;;;;;;0.97;0.37;;;24.90;98.60;;;;;;4886477;29;20967;-69
2022/08/21 14:46:22;;;;;;;0.40;0.40;;;24.90;98.10;;;;;;4891417;29;20835;-69
2022/08/21 14:48:50;;;;;;;0.50;0.50;;;25.00;99.20;;;;;;4894168;29;20586;-69
2022/08/21 14:51:18;;;;;;;0.40;0.40;;;25.00;98.00;;;;;;4890590;29;20616;-70
2022/08/21 14:53:45;;;;;;;0.43;0.43;;;24.90;97.40;;;;;;4890848;29;20803;-73
2022/08/21 14:56:13;;;;;;;0.30;0.30;;;24.90;97.50;;;;;;4894316;29;20851;-69
2022/08/21 14:58:43;;;;;;;0.50;0.50;;;24.90;98.00;;;;;;4895626;29;20475;-69
2022/08/21 15:01:13;;;;;;;0.20;0.20;;;24.90;98.60;;;;;;4892947;29;20507;-70
2022/08/21 15:03:40;;;;;;;0.70;0.70;;;25.00;99.00;;;;;;4891735;29;20558;-69
2022/08/21 15:06:09;;;;;;;0.43;0.43;;;25.00;98.10;;;;;;4892902;29;20602;-71
2022/08/21 15:08:37;;;;;;;0.70;0.70;;;25.10;97.90;;;;;;4888083;29;20464;-71
2022/08/21 15:11:05;;;;;;;0.60;0.60;;;25.20;97.00;;;;;;4890179;29;20475;-71
2022/08/21 15:13:32;;;;;;;0.30;0.30;;;25.30;96.60;;;;;;4894711;29;20207;-70
2022/08/21 15:15:59;;;;;;;0.60;0.60;;;25.30;96.90;;;;;;4889780;29;20479;-71
2022/08/21 15:18:28;;;;;;;0.40;0.40;;;25.40;96.30;;;;;;4892052;29;20487;-72
2022/08/21 15:20:55;;;;;;;0.30;0.30;;;25.40;96.20;;;;;;4890961;29;20492;-71
2022/08/21 15:23:23;;;;;;;0.60;0.60;;;25.30;96.80;;;;;;4892333;29;21844;-72
2022/08/21 15:25:52;;;;;;;0.50;0.50;;;25.10;97.10;;;;;;4893770;29;20499;-71
2022/08/21 15:28:21;;;;;;;0.33;0.33;;;25.00;97.40;;;;;;4894402;29;20491;-70
2022/08/21 15:30:47;;;;;;;0.40;0.40;;;24.90;97.60;;;;;;4893891;29;20492;-71
2022/08/21 15:33:14;;;;;;;0.30;0.30;;;24.80;98.20;;;;;;4893232;29;20482;-70
2022/08/21 15:35:41;;;;;;;0.50;0.50;;;24.70;98.60;;;;;;4892127;29;20973;-70
2022/08/21 15:38:08;;;;;;;1.03;0.50;;;24.70;98.60;;;;;;4894029;29;20474;-71
2022/08/21 15:40:37;;;;;;;0.50;0.50;;;24.70;98.80;;;;;;4892770;29;20489;-70
2022/08/21 15:43:05;;;;;;;0.40;0.40;;;24.80;98.80;;;;;;4892073;29;20487;-71
2022/08/21 15:45:33;;;;;;;0.20;0.20;;;24.80;98.60;;;;;;4887420;29;20496;-70
2022/08/21 15:48:00;;;;;;;0.50;0.33;;;25.00;98.80;;;;;;4886170;29;20488;-70
2022/08/21 15:50:31;;;;;;;0.43;0.43;;;24.90;98.20;;;;;;4894892;29;20493;-70
2022/08/21 15:52:58;;;;;;;0.30;0.30;;;24.90;98.40;;;;;;4893478;29;20503;-70
2022/08/21 15:55:25;;;;;;;0.20;0.20;;;24.90;98.00;;;;;;4887614;29;20472;-70
2022/08/21 15:57:53;;;;;;;0.50;0.30;;;24.90;97.80;;;;;;4890445;29;20511;-71
2022/08/21 16:00:23;;;;;;;0.30;0.30;;;24.90;98.20;;;;;;4891884;29;20483;-71
2022/08/21 16:02:52;;;;;;;0.73;0.57;;;25.00;98.10;;;;;;4891629;29;20494;-71
2022/08/21 16:05:20;;;;;;;0.40;0.40;;;24.90;97.90;;;;;;4893228;29;20999;-71
2022/08/21 16:07:48;;;;;;;0.70;0.70;;;25.00;98.20;;;;;;4894458;29;20502;-71
2022/08/21 16:10:17;;;;;;;0.30;0.30;;;25.00;97.90;;;;;;4894530;29;21266;-70
2022/08/21 16:12:49;;;;;;;0.40;0.40;;;25.00;97.50;;;;;;4889481;29;20475;-70
2022/08/21 16:15:18;;;;;;;0.47;0.47;;;24.90;97.30;;;;;;4891844;29;20495;-71
2022/08/21 16:17:48;;;;;;;0.30;0.30;;;24.80;97.80;;;;;;4892764;29;20474;-71
2022/08/21 16:20:18;;;;;;;0.20;0.20;;;24.90;97.30;;;;;;4895087;29;20472;-71
2022/08/21 16:22:45;;;;;;;0.30;0.30;;;24.90;97.20;;;;;;4891818;29;20476;-70
2022/08/21 16:25:13;;;;;;;0.50;0.50;;;24.90;97.40;;;;;;4889231;29;20558;-69
2022/08/21 16:27:42;;;;;;;0.40;0.40;;;24.90;97.40;;;;;;4891820;29;20505;-70
2022/08/21 16:30:09;;;;;;;0.30;0.30;;;25.00;97.30;;;;;;4893596;29;20893;-70
2022/08/21 16:32:38;;;;;;;0.30;0.30;;;25.00;97.10;;;;;;4886627;29;21033;-71
2022/08/21 16:35:05;;;;;;;0.30;0.30;;;25.00;97.60;;;;;;4891360;29;20475;-69
2022/08/21 16:37:32;;;;;;;0.47;0.47;;;25.00;97.40;;;;;;4894149;29;20475;-70
2022/08/21 16:39:59;;;;;;;0.50;0.50;;;25.00;97.40;;;;;;4894309;29;20554;-70
2022/08/21 16:42:27;;;;;;;0.30;0.30;;;25.00;97.40;;;;;;4892437;29;20528;-70
2022/08/21 16:44:55;;;;;;;0.30;0.30;;;25.00;97.00;;;;;;4894016;29;20475;-71
2022/08/21 16:47:22;;;;;;;0.30;0.30;;;24.90;97.10;;;;;;4894640;29;20495;-71
2022/08/21 16:49:50;;;;;;;0.20;0.20;;;24.80;97.40;;;;;;4894727;29;20475;-71
2022/08/21 16:52:17;;;;;;;0.40;0.40;;;24.80;98.00;;;;;;4893099;29;20512;-71
2022/08/21 16:54:44;;;;;;;0.20;0.20;;;24.80;97.70;;;;;;4891614;29;20475;-71
2022/08/21 16:57:11;;;;;;;0.27;0.27;;;24.70;97.20;;;;;;4888678;29;20498;-71
2022/08/21 16:59:39;;;;;;;0.20;0.20;;;24.60;97.40;;;;;;4893722;29;20581;-72
2022/08/21 17:02:24;;;;;;;0.20;0.20;;;24.50;97.30;;;;;;4890076;29;20600;-71
2022/08/21 17:04:52;;;;;;;0.30;0.30;;;24.40;97.50;;;;;;4890610;29;20899;-74
2022/08/21 17:07:19;;;;;;;0.40;0.40;;;24.30;97.50;;;;;;4892641;29;20581;-72
2022/08/21 17:09:46;;;;;;;0.20;0.20;;;24.20;97.80;;;;;;4893876;29;20525;-72